Arroyo Hondo, New Mexico
Current Conditions -  °F | °C
As of 5:15 PM on Saturday 25 Oct 2014 (Local Time) from KSKX Reporting Station
Clear Clear  
Wind Chill: 73°   Ceiling: Unl
Heat Index: 73°   Visibility: 10mi
Dew Point: 21°   Wind: 12mph
Humidity: 14%   Direction: 230°SW
Pressure: 30.26"   Gusts: NA
Location:  36.53°N, 105.67°W
Report Text: KSKX 252315Z AUTO 23010KT 10SM CLR 23/M06 A3026 RMK AO1
Loading
Personal Weather Stations






























Interactive Weather Map
Tropical Storm Tracking
New forecast layout! Learn more

10-Day Weather Forecast

Advertisements
Track Severe Weather on mobile